Time;durP1;ratioP1;P1;durP2;ratioP2;P2;SDS_P1;SDS_P2;PMS_P1;PMS_P2;Temp;Humidity;BMP_temperature;BMP_pressure;BME280_temperature;BME280_humidity;BME280_pressure;Samples;Min_cycle;Max_cycle;Signal;HPM_P1;HPM_P2
2023/09/21 00:02:12;;;;;;;5.75;4.05;;;;;;;;;;10481428;28;20250;-78
2023/09/21 00:07:36;;;;;;;6.03;3.92;;;;;;;;;;10504768;28;20582;-80
2023/09/21 00:12:57;;;;;;;4.32;3.47;;;;;;;;;;10467550;28;20209;-81
2023/09/21 00:18:23;;;;;;;5.18;3.65;;;;;;;;;;10464256;28;20230;-80
2023/09/21 00:23:47;;;;;;;6.82;4.50;;;;;;;;;;10481701;28;20234;-85
2023/09/21 00:29:10;;;;;;;9.15;4.10;;;;;;;;;;10463650;28;20520;-80
2023/09/21 00:34:34;;;;;;;7.95;4.20;;;;;;;;;;10530013;28;20350;-79
2023/09/21 00:39:56;;;;;;;5.00;3.80;;;;;;;;;;10468986;28;20283;-79
2023/09/21 00:45:22;;;;;;;6.70;3.60;;;;;;;;;;10462946;28;20257;-81
2023/09/21 00:50:44;;;;;;;4.75;3.75;;;;;;;;;;10466424;28;20234;-79
2023/09/21 00:56:11;;;;;;;6.65;3.95;;;;;;;;;;10465134;28;20231;-81
2023/09/21 01:01:37;;;;;;;6.20;4.20;;;;;;;;;;10487692;28;20211;-80
2023/09/21 01:07:20;;;;;;;4.20;3.80;;;;;;;;;;10488091;28;20251;-79
2023/09/21 01:12:44;;;;;;;5.28;4.00;;;;;;;;;;10520972;28;20256;-81
2023/09/21 01:18:09;;;;;;;5.50;3.97;;;;;;;;;;10501293;28;20280;-79
2023/09/21 01:23:34;;;;;;;5.60;3.95;;;;;;;;;;10464627;28;20388;-79
2023/09/21 01:28:56;;;;;;;4.35;3.75;;;15.00;1.00;;;;;;10481589;28;20213;-79
2023/09/21 01:34:18;;;;;;;6.50;3.85;;;15.00;99.90;;;;;;10485576;28;20219;-79
2023/09/21 01:39:39;;;;;;;7.32;4.63;;;14.90;1.00;;;;;;10504062;28;20209;-78
2023/09/21 01:45:01;;;;;;;9.20;4.47;;;14.90;1.00;;;;;;10477083;28;20233;-79
2023/09/21 01:50:25;;;;;;;6.68;3.70;;;14.80;99.90;;;;;;10477443;28;20585;-80
2023/09/21 01:55:48;;;;;;;5.55;4.35;;;14.80;99.90;;;;;;10480237;28;20253;-79
2023/09/21 02:01:10;;;;;;;5.85;4.03;;;14.70;1.00;;;;;;10471331;28;20206;-78
2023/09/21 02:06:33;;;;;;;6.38;4.40;;;;;;;;;;10487328;28;20236;-79
2023/09/21 02:11:54;;;;;;;5.97;4.38;;;14.70;1.00;;;;;;10459115;28;20201;-79
2023/09/21 02:17:17;;;;;;;7.25;5.20;;;14.70;1.00;;;;;;10491523;28;20295;-80
2023/09/21 02:22:38;;;;;;;8.70;5.13;;;14.70;1.00;;;;;;10478721;28;20216;-79
2023/09/21 02:27:59;;;;;;;8.63;4.88;;;14.60;1.00;;;;;;10459488;28;20308;-81
2023/09/21 02:33:22;;;;;;;7.50;4.10;;;14.60;1.00;;;;;;10507910;28;20194;-79
2023/09/21 02:38:44;;;;;;;6.15;4.63;;;14.60;99.90;;;;;;10467483;28;20211;-80
2023/09/21 02:44:07;;;;;;;7.38;4.30;;;14.60;17.30;;;;;;10476183;28;20250;-81
2023/09/21 02:49:30;;;;;;;8.90;5.15;;;14.60;1.00;;;;;;10445706;28;20210;-79
2023/09/21 02:54:53;;;;;;;5.97;4.80;;;14.60;51.50;;;;;;10462482;28;20396;-79
2023/09/21 03:00:49;;;;;;;6.32;4.75;;;14.70;1.00;;;;;;10462779;28;20221;-81
2023/09/21 03:06:04;;;;;;;5.47;4.10;;;14.70;1.00;;;;;;10491437;28;20459;-81
2023/09/21 03:11:26;;;;;;;5.88;3.70;;;14.70;1.00;;;;;;10500273;28;20200;-79
2023/09/21 03:16:49;;;;;;;4.50;3.33;;;14.60;1.00;;;;;;10500247;28;20285;-79
2023/09/21 03:22:11;;;;;;;5.35;3.45;;;14.60;43.40;;;;;;10486804;28;20194;-78
2023/09/21 03:27:34;;;;;;;4.68;3.47;;;;;;;;;;10514331;28;20226;-79
2023/09/21 03:32:56;;;;;;;5.00;3.47;;;14.50;81.60;;;;;;10493105;28;20206;-79
2023/09/21 03:38:18;;;;;;;5.18;3.75;;;14.40;1.00;;;;;;10482951;28;20189;-79
2023/09/21 03:43:43;;;;;;;4.90;3.78;;;14.50;99.90;;;;;;10465861;28;20486;-80
2023/09/21 03:49:04;;;;;;;7.38;4.13;;;14.50;99.90;;;;;;10471846;28;20211;-78
2023/09/21 03:54:26;;;;;;;5.65;4.00;;;14.40;1.00;;;;;;10454303;28;20227;-79
2023/09/21 03:59:48;;;;;;;5.90;4.07;;;;;;;;;;10481489;28;20240;-78
2023/09/21 04:05:13;;;;;;;6.35;4.57;;;;;;;;;;10520752;28;20288;-79
2023/09/21 04:10:36;;;;;;;12.15;4.88;;;;;;;;;;10508360;28;20201;-78
2023/09/21 04:15:58;;;;;;;6.10;5.28;;;;;;;;;;10506018;28;20205;-80
2023/09/21 04:21:20;;;;;;;13.10;7.30;;;14.10;1.00;;;;;;10467247;28;20216;-79
2023/09/21 04:26:42;;;;;;;13.63;7.97;;;14.00;1.00;;;;;;10478385;28;20226;-86
2023/09/21 04:32:04;;;;;;;12.48;6.72;;;13.90;1.00;;;;;;10501813;28;20223;-82
2023/09/21 04:37:26;;;;;;;9.95;6.15;;;13.90;1.00;;;;;;10508402;28;20201;-81
2023/09/21 04:49:42;;;;;;;8.98;6.15;;;13.90;1.00;;;;;;10521142;28;20209;-79
2023/09/21 04:55:05;;;;;;;11.20;6.93;;;13.90;99.90;;;;;;10493701;28;20197;-82
2023/09/21 05:00:27;;;;;;;16.27;8.43;;;14.00;1.00;;;;;;10468202;28;20203;-80
2023/09/21 05:05:49;;;;;;;13.43;8.27;;;14.10;1.00;;;;;;10516450;28;20551;-79
2023/09/21 05:11:11;;;;;;;7.97;5.85;;;14.20;1.00;;;;;;10506539;28;20189;-80
2023/09/21 05:16:32;;;;;;;8.55;5.50;;;14.20;1.00;;;;;;10497010;28;20209;-81
2023/09/21 05:21:56;;;;;;;7.10;4.85;;;14.30;99.90;;;;;;10464822;28;20473;-80
2023/09/21 05:27:19;;;;;;;9.30;5.57;;;14.20;1.00;;;;;;10490099;28;20252;-80
2023/09/21 05:32:40;;;;;;;9.63;5.88;;;14.30;1.00;;;;;;10502820;28;20196;-81
2023/09/21 05:38:05;;;;;;;10.40;6.88;;;14.40;99.90;;;;;;10485529;28;20206;-79
2023/09/21 05:43:26;;;;;;;8.90;6.63;;;14.50;1.00;;;;;;10478930;28;20390;-88
2023/09/21 05:48:48;;;;;;;7.53;5.68;;;14.60;99.90;;;;;;10526307;28;20227;-81
2023/09/21 05:54:10;;;;;;;11.57;6.38;;;14.70;1.00;;;;;;10516090;28;20449;-83
2023/09/21 05:59:31;;;;;;;8.23;5.93;;;14.80;1.00;;;;;;10490877;28;20351;-84
2023/09/21 06:04:53;;;;;;;11.88;7.38;;;14.90;99.90;;;;;;10511026;28;20234;-87
2023/09/21 06:10:15;;;;;;;17.77;9.38;;;15.10;99.90;;;;;;10522022;28;20202;-84
2023/09/21 06:15:37;;;;;;;12.82;7.53;;;15.20;99.90;;;;;;10490310;28;20240;-83
2023/09/21 06:21:02;;;;;;;10.95;6.13;;;15.40;1.00;;;;;;10462674;28;20282;-82
2023/09/21 06:26:23;;;;;;;8.88;6.30;;;15.60;1.00;;;;;;10476715;28;20232;-88
2023/09/21 06:31:48;;;;;;;7.57;6.10;;;15.90;1.00;;;;;;10462624;28;20234;-87
2023/09/21 06:37:19;;;;;;;15.38;9.23;;;16.30;1.00;;;;;;10455124;28;20269;-81
2023/09/21 06:42:41;;;;;;;11.68;6.72;;;16.70;1.00;;;;;;10440155;28;20537;-81
2023/09/21 06:48:05;;;;;;;7.45;5.47;;;17.30;1.00;;;;;;10463849;28;20223;-89
2023/09/21 06:53:29;;;;;;;10.57;5.32;;;17.90;99.90;;;;;;10456183;28;20198;-84
2023/09/21 06:58:51;;;;;;;6.25;4.20;;;19.60;32.60;;;;;;10469844;28;20251;-90
2023/09/21 07:04:13;;;;;;;4.97;3.45;;;;;;;;;;10440041;28;20259;-88
2023/09/21 07:09:38;;;;;;;4.97;3.63;;;22.20;1.00;;;;;;10478247;28;20199;-92
2023/09/21 07:15:00;;;;;;;5.00;3.33;;;;;;;;;;10457510;28;20209;-90
2023/09/21 07:20:23;;;;;;;5.47;3.63;;;23.40;99.90;;;;;;10450176;28;20207;-90
2023/09/21 07:25:45;;;;;;;5.22;3.80;;;;;;;;;;10410271;28;20239;-86
2023/09/21 07:31:09;;;;;;;6.25;3.33;;;;;;;;;;10455147;28;20234;-85
2023/09/21 07:36:31;;;;;;;6.38;4.70;;;25.30;99.90;;;;;;10420411;28;20384;-83
2023/09/21 07:41:55;;;;;;;6.82;3.75;;;25.70;99.90;;;;;;10452198;28;20207;-83
2023/09/21 07:47:17;;;;;;;5.30;3.65;;;24.60;99.90;;;;;;10463596;28;20242;-85
2023/09/21 07:52:39;;;;;;;3.70;2.78;;;23.90;99.90;;;;;;10474253;28;20370;-85
2023/09/21 07:58:01;;;;;;;2.80;2.40;;;23.90;99.90;;;;;;10459102;28;20235;-83
2023/09/21 08:03:26;;;;;;;7.85;3.22;;;25.10;99.90;;;;;;10462875;28;20200;-87
2023/09/21 08:08:48;;;;;;;7.07;2.72;;;28.00;99.90;;;;;;10455503;28;20307;-80
2023/09/21 08:14:10;;;;;;;3.08;2.78;;;;;;;;;;10418678;28;20224;-80
2023/09/21 08:19:31;;;;;;;3.95;2.10;;;28.40;99.90;;;;;;10415944;28;20222;-83
2023/09/21 08:24:53;;;;;;;2.10;1.90;;;29.30;99.90;;;;;;10502584;28;20206;-82
2023/09/21 08:30:15;;;;;;;2.53;2.05;;;;;;;;;;10488196;28;20234;-82
2023/09/21 08:35:40;;;;;;;2.25;1.83;;;30.20;99.90;;;;;;10474339;28;20383;-79
2023/09/21 08:41:02;;;;;;;4.50;2.40;;;30.00;99.90;;;;;;10510958;28;20205;-80
2023/09/21 08:46:25;;;;;;;2.08;1.88;;;30.20;99.90;;;;;;10438117;28;20273;-81
2023/09/21 08:51:47;;;;;;;7.30;2.03;;;30.70;99.90;;;;;;10469615;28;20204;-83
2023/09/21 08:57:11;;;;;;;4.53;2.33;;;31.40;1.00;;;;;;10475613;28;20239;-85
2023/09/21 09:02:35;;;;;;;2.40;1.70;;;31.20;1.00;;;;;;10442196;28;20302;-86
2023/09/21 09:07:57;;;;;;;6.45;2.88;;;31.50;1.00;;;;;;10456868;28;20242;-83
2023/09/21 09:13:18;;;;;;;3.15;2.05;;;31.30;1.00;;;;;;10455619;28;20219;-83
2023/09/21 09:18:40;;;;;;;3.53;2.53;;;31.70;1.00;;;;;;10457020;28;20258;-81
2023/09/21 09:24:04;;;;;;;2.95;2.33;;;31.50;1.00;;;;;;10492997;28;20203;-80
2023/09/21 09:29:26;;;;;;;3.22;2.42;;;32.00;1.00;;;;;;10514691;28;20229;-80
2023/09/21 09:34:48;;;;;;;2.70;1.63;;;32.30;1.00;;;;;;10480318;28;20517;-83
2023/09/21 09:40:13;;;;;;;1.65;1.42;;;32.10;99.90;;;;;;10496599;28;20264;-81
2023/09/21 09:45:39;;;;;;;5.35;2.25;;;31.60;96.30;;;;;;10442294;28;20248;-81
2023/09/21 09:51:09;;;;;;;4.57;1.70;;;31.80;99.90;;;;;;10446678;28;20204;-86
2023/09/21 09:56:32;;;;;;;220.43;13.65;;;31.60;99.90;;;;;;10414615;28;20240;-81
2023/09/21 10:01:56;;;;;;;3.25;2.08;;;32.00;29.10;;;;;;10431626;28;20222;-82
2023/09/21 10:07:18;;;;;;;3.90;2.95;;;32.30;17.30;;;;;;10455054;28;20326;-86
2023/09/21 10:12:40;;;;;;;2.50;2.00;;;;;;;;;;10453265;28;20216;-85
2023/09/21 10:18:04;;;;;;;6.22;1.63;;;34.00;99.90;;;;;;10441247;28;20208;-88
2023/09/21 10:23:27;;;;;;;2.53;1.67;;;33.60;99.90;;;;;;10420106;28;20507;-87
2023/09/21 10:28:50;;;;;;;2.78;2.03;;;33.30;99.90;;;;;;10432085;28;20263;-87
2023/09/21 10:34:16;;;;;;;5.60;1.92;;;33.50;99.90;;;;;;10458076;28;20224;-85
2023/09/21 10:45:07;;;;;;;9.73;2.17;;;33.30;99.90;;;;;;10478836;28;20230;-79
2023/09/21 10:50:30;;;;;;;3.05;2.00;;;33.20;99.90;;;;;;10448523;28;20246;-79
2023/09/21 10:55:53;;;;;;;6.13;2.25;;;32.30;99.90;;;;;;10477810;28;20325;-80
2023/09/21 11:01:19;;;;;;;6.18;2.00;;;32.50;99.90;;;;;;10455044;28;20483;-83
2023/09/21 11:06:41;;;;;;;4.57;2.00;;;33.30;99.90;;;;;;10471914;28;20234;-84
2023/09/21 11:12:02;;;;;;;7.85;2.60;;;33.30;99.90;;;;;;10486916;28;20191;-86
2023/09/21 11:17:24;;;;;;;3.15;2.15;;;33.90;99.90;;;;;;10453760;28;20286;-83
2023/09/21 11:22:48;;;;;;;7.15;2.80;;;33.40;99.90;;;;;;10464288;28;20495;-84
2023/09/21 11:28:10;;;;;;;4.00;2.40;;;33.30;99.90;;;;;;10473891;28;20350;-81
2023/09/21 11:33:35;;;;;;;4.03;2.25;;;33.40;99.90;;;;;;10478061;28;20200;-88
2023/09/21 11:38:56;;;;;;;4.10;2.33;;;33.30;99.90;;;;;;10508667;28;20199;-78
2023/09/21 11:44:19;;;;;;;3.63;1.88;;;33.00;99.90;;;;;;10486795;28;20240;-85
2023/09/21 11:49:42;;;;;;;9.15;2.70;;;33.30;99.90;;;;;;10461040;28;20290;-82
2023/09/21 11:55:05;;;;;;;3.67;2.13;;;33.40;99.90;;;;;;10463055;28;20200;-79
2023/09/21 12:00:27;;;;;;;9.55;3.35;;;33.70;99.90;;;;;;10470809;28;20219;-84
2023/09/21 12:05:50;;;;;;;2.92;2.15;;;33.90;99.90;;;;;;10477863;28;20231;-79
2023/09/21 12:11:12;;;;;;;4.93;2.33;;;33.90;99.90;;;;;;10457834;28;20582;-81
2023/09/21 12:16:34;;;;;;;9.15;2.78;;;33.50;99.90;;;;;;10472647;28;20451;-87
2023/09/21 12:21:57;;;;;;;4.85;2.38;;;33.30;99.90;;;;;;10458799;28;20216;-83
2023/09/21 12:27:18;;;;;;;5.63;2.28;;;33.30;99.90;;;;;;10477490;28;20239;-82
2023/09/21 12:32:41;;;;;;;7.68;2.70;;;33.60;99.90;;;;;;10465634;28;20207;-78
2023/09/21 12:38:03;;;;;;;5.15;4.05;;;33.50;99.90;;;;;;10442980;28;20247;-79
2023/09/21 12:43:24;;;;;;;11.77;8.20;;;33.20;99.90;;;;;;10476237;28;20494;-79
2023/09/21 12:48:46;;;;;;;5.90;2.97;;;32.50;99.90;;;;;;10460449;28;20466;-79
2023/09/21 12:54:09;;;;;;;3.03;1.98;;;32.00;99.90;;;;;;10445793;28;20402;-79
2023/09/21 12:59:30;;;;;;;4.63;1.90;;;31.50;99.90;;;;;;10428600;28;20436;-85
2023/09/21 13:04:59;;;;;;;7.85;2.53;;;31.40;99.90;;;;;;10481936;28;20456;-80
2023/09/21 13:10:21;;;;;;;4.15;2.00;;;31.20;99.90;;;;;;10466347;28;20519;-79
2023/09/21 13:15:43;;;;;;;7.55;4.95;;;31.50;99.90;;;;;;10454851;28;20439;-80
2023/09/21 13:21:05;;;;;;;4.72;2.20;;;31.90;99.90;;;;;;10457443;28;20219;-80
2023/09/21 13:26:27;;;;;;;4.20;2.20;;;32.00;99.90;;;;;;10462355;28;20235;-80
2023/09/21 13:31:48;;;;;;;10.85;2.10;;;31.80;99.90;;;;;;10443728;28;20553;-78
2023/09/21 13:37:10;;;;;;;10.20;3.58;;;31.40;99.90;;;;;;10455152;28;20238;-79
2023/09/21 13:42:33;;;;;;;4.90;2.00;;;31.20;99.90;;;;;;10437072;28;20279;-83
2023/09/21 13:47:54;;;;;;;6.43;2.40;;;30.90;99.90;;;;;;10442799;28;20235;-80
2023/09/21 13:53:17;;;;;;;7.18;2.15;;;30.50;99.90;;;;;;10440023;28;20266;-83
2023/09/21 13:58:38;;;;;;;8.50;2.50;;;30.30;99.90;;;;;;10452971;28;20309;-82
2023/09/21 14:04:00;;;;;;;5.85;2.60;;;29.80;99.90;;;;;;10465549;28;20234;-82
2023/09/21 14:09:22;;;;;;;10.57;2.60;;;29.20;99.90;;;;;;10449494;28;20220;-78
2023/09/21 14:14:43;;;;;;;10.02;2.65;;;28.80;99.90;;;;;;10461696;28;20200;-83
2023/09/21 14:20:05;;;;;;;4.80;2.53;;;28.40;99.90;;;;;;10464298;28;20208;-81
2023/09/21 14:25:27;;;;;;;3.35;1.92;;;28.10;99.90;;;;;;10462576;28;20199;-80
2023/09/21 14:30:52;;;;;;;8.00;2.03;;;28.00;99.90;;;;;;10464777;28;20208;-83
2023/09/21 14:36:14;;;;;;;6.03;2.15;;;27.80;99.90;;;;;;10451478;28;20215;-87
2023/09/21 14:41:35;;;;;;;5.40;2.85;;;27.60;99.90;;;;;;10459798;28;20294;-93
2023/09/21 14:46:57;;;;;;;6.68;2.53;;;27.40;99.90;;;;;;10430728;28;20573;-85
2023/09/21 14:52:19;;;;;;;6.55;2.42;;;27.20;99.90;;;;;;10481521;28;20241;-85
2023/09/21 14:57:41;;;;;;;4.15;2.33;;;27.30;99.90;;;;;;10459769;28;20246;-88
2023/09/21 15:03:04;;;;;;;6.95;2.55;;;27.30;99.90;;;;;;10484286;28;20207;-83
2023/09/21 15:08:26;;;;;;;6.32;2.65;;;27.20;99.90;;;;;;10479276;28;20230;-82
2023/09/21 15:13:49;;;;;;;8.75;2.78;;;27.10;99.90;;;;;;10480870;28;20195;-80
2023/09/21 15:19:11;;;;;;;6.93;4.72;;;26.90;97.00;;;;;;10472964;28;20275;-79
2023/09/21 15:24:33;;;;;;;9.30;3.13;;;26.70;97.60;;;;;;10497740;28;20278;-79
2023/09/21 15:29:55;;;;;;;13.18;3.10;;;26.70;99.90;;;;;;10517938;28;20294;-79
2023/09/21 15:35:17;;;;;;;8.18;3.08;;;26.50;99.90;;;;;;10513720;28;20394;-81
2023/09/21 15:40:38;;;;;;;8.85;4.03;;;26.40;99.90;;;;;;10525175;28;20187;-83
2023/09/21 15:46:00;;;;;;;10.75;3.80;;;26.20;99.90;;;;;;10483858;28;20447;-80
2023/09/21 15:51:22;;;;;;;16.45;5.22;;;26.10;99.90;;;;;;10463021;28;20199;-83
2023/09/21 15:56:44;;;;;;;7.53;3.65;;;26.00;99.90;;;;;;10524313;28;20219;-80
2023/09/21 16:02:06;;;;;;;9.18;3.03;;;26.00;99.90;;;;;;10441210;28;20362;-82
2023/09/21 16:07:28;;;;;;;6.63;2.88;;;25.80;99.90;;;;;;10453946;28;20580;-79
2023/09/21 16:12:50;;;;;;;6.53;3.28;;;25.70;99.90;;;;;;10449729;28;20536;-80
2023/09/21 16:18:12;;;;;;;9.80;2.78;;;25.60;99.90;;;;;;10495170;28;20204;-82
2023/09/21 16:23:34;;;;;;;5.57;3.00;;;25.40;99.90;;;;;;10433911;28;20204;-80
2023/09/21 16:28:55;;;;;;;9.07;3.25;;;25.30;99.90;;;;;;10408692;28;20243;-80
2023/09/21 16:34:19;;;;;;;4.47;2.72;;;25.20;99.90;;;;;;10446259;28;20270;-79
2023/09/21 16:39:40;;;;;;;4.25;2.42;;;25.10;99.90;;;;;;10480356;28;20483;-81
2023/09/21 16:45:06;;;;;;;6.75;3.03;;;25.00;99.90;;;;;;10485612;28;20199;-81
2023/09/21 16:50:29;;;;;;;4.35;2.67;;;24.80;99.90;;;;;;10463003;28;20219;-81
2023/09/21 16:55:50;;;;;;;5.55;2.90;;;24.60;99.90;;;;;;10484260;28;20223;-81
2023/09/21 17:01:12;;;;;;;5.57;3.22;;;24.50;99.90;;;;;;10480320;28;20184;-80
2023/09/21 17:06:33;;;;;;;5.65;3.60;;;24.30;99.90;;;;;;10446731;28;20224;-82
2023/09/21 17:11:55;;;;;;;6.13;3.38;;;24.10;99.90;;;;;;10439322;28;20491;-80
2023/09/21 17:17:21;;;;;;;7.05;3.92;;;24.10;99.90;;;;;;10433954;28;20298;-82
2023/09/21 17:22:43;;;;;;;6.55;3.75;;;23.80;99.90;;;;;;10461606;28;20246;-79
2023/09/21 17:28:04;;;;;;;11.10;3.72;;;23.70;99.90;;;;;;10436637;28;20228;-81
2023/09/21 17:33:26;;;;;;;6.13;3.15;;;23.60;99.90;;;;;;10430902;28;20417;-80
2023/09/21 17:38:48;;;;;;;7.50;3.28;;;23.60;99.90;;;;;;10435780;28;20283;-80
2023/09/21 17:44:09;;;;;;;5.80;3.80;;;23.40;99.90;;;;;;10437868;28;20187;-79
2023/09/21 17:49:34;;;;;;;10.57;3.55;;;23.30;99.90;;;;;;10430721;28;20231;-79
2023/09/21 17:54:56;;;;;;;4.70;2.80;;;23.20;99.90;;;;;;10418627;28;20279;-80
2023/09/21 18:00:18;;;;;;;6.43;3.70;;;23.10;99.90;;;;;;10434243;28;20495;-81
2023/09/21 18:05:39;;;;;;;8.75;4.03;;;23.00;99.90;;;;;;10435462;28;20267;-79
2023/09/21 18:11:01;;;;;;;10.63;4.00;;;22.90;99.90;;;;;;10404388;28;20232;-80
2023/09/21 18:16:23;;;;;;;9.57;4.05;;;22.80;99.90;;;;;;10408696;28;20247;-80
2023/09/21 18:21:45;;;;;;;5.97;3.38;;;;;;;;;;10392770;28;20203;-80
2023/09/21 18:27:07;;;;;;;10.35;3.03;;;;;;;;;;10413212;28;20236;-80
2023/09/21 18:32:29;;;;;;;7.53;3.75;;;22.40;99.90;;;;;;10395716;28;20200;-79
2023/09/21 18:37:50;;;;;;;8.70;3.38;;;22.40;99.90;;;;;;10393788;28;20292;-80
2023/09/21 18:43:13;;;;;;;14.00;3.45;;;22.20;99.90;;;;;;10395320;28;20486;-81
2023/09/21 18:48:34;;;;;;;4.20;3.50;;;22.10;99.90;;;;;;10411642;28;20225;-80
2023/09/21 18:53:56;;;;;;;9.32;3.63;;;22.10;99.90;;;;;;10434770;28;20250;-81
2023/09/21 18:59:17;;;;;;;11.05;3.50;;;22.00;99.90;;;;;;10429968;28;20255;-80
2023/09/21 19:04:40;;;;;;;11.75;3.10;;;;;;;;;;10438255;28;20223;-80
2023/09/21 19:10:05;;;;;;;9.07;3.20;;;21.80;99.90;;;;;;10441668;28;20220;-80
2023/09/21 19:15:29;;;;;;;8.18;3.05;;;21.80;99.90;;;;;;10434067;28;20197;-81
2023/09/21 19:31:30;;;;;;;6.63;3.33;;;21.60;99.90;;;;;;10426601;28;20212;-81
2023/09/21 19:36:52;;;;;;;9.52;3.88;;;21.50;99.90;;;;;;10401423;28;20588;-80
2023/09/21 19:42:13;;;;;;;5.35;3.60;;;21.50;99.90;;;;;;10404629;28;20231;-80
2023/09/21 19:47:35;;;;;;;7.07;3.50;;;21.40;99.90;;;;;;10437347;28;20255;-79
2023/09/21 19:52:57;;;;;;;7.10;3.65;;;21.30;99.90;;;;;;10416277;28;20205;-81
2023/09/21 19:58:19;;;;;;;5.95;3.50;;;21.30;99.90;;;;;;10400099;28;20332;-79
2023/09/21 20:03:40;;;;;;;4.93;3.15;;;21.20;99.90;;;;;;10400650;28;20204;-79
2023/09/21 20:09:06;;;;;;;5.53;3.25;;;21.10;99.90;;;;;;10414860;28;20236;-79
2023/09/21 20:14:28;;;;;;;12.95;3.60;;;21.10;99.90;;;;;;10401178;28;20227;-81
2023/09/21 20:19:49;;;;;;;4.97;2.92;;;21.00;99.90;;;;;;10423171;28;20479;-82
2023/09/21 20:25:11;;;;;;;7.43;2.85;;;21.00;99.90;;;;;;10424092;28;20283;-79
2023/09/21 20:30:34;;;;;;;6.20;2.85;;;20.80;99.90;;;;;;10398513;28;20252;-81
2023/09/21 20:35:55;;;;;;;4.68;2.60;;;20.80;99.90;;;;;;10391488;28;20204;-79
2023/09/21 20:41:17;;;;;;;10.52;3.08;;;20.70;99.90;;;;;;10412220;28;20228;-81
2023/09/21 20:46:38;;;;;;;9.40;3.13;;;20.70;99.90;;;;;;10403384;28;20239;-81
2023/09/21 20:52:00;;;;;;;2.97;2.33;;;20.70;99.90;;;;;;10397543;28;20193;-81
2023/09/21 20:57:22;;;;;;;4.95;2.60;;;20.60;99.90;;;;;;10407019;28;20240;-80
2023/09/21 21:02:44;;;;;;;7.20;2.65;;;20.50;99.90;;;;;;10439247;28;20467;-81
2023/09/21 21:08:06;;;;;;;4.03;2.30;;;20.50;99.90;;;;;;10442354;28;20307;-81
2023/09/21 21:13:27;;;;;;;5.32;2.45;;;20.40;99.90;;;;;;10421140;28;20275;-80
2023/09/21 21:18:49;;;;;;;3.42;2.50;;;20.40;99.90;;;;;;10460229;28;20276;-80
2023/09/21 21:24:11;;;;;;;3.60;2.30;;;20.40;1.00;;;;;;10460173;28;20475;-80
2023/09/21 21:29:32;;;;;;;3.28;2.38;;;20.30;1.00;;;;;;10438090;28;20228;-81
2023/09/21 21:34:54;;;;;;;3.63;2.45;;;20.20;1.00;;;;;;10423601;28;20200;-79
2023/09/21 21:40:15;;;;;;;4.07;2.05;;;20.20;1.00;;;;;;10438057;28;20199;-79
2023/09/21 21:45:37;;;;;;;5.70;2.65;;;20.10;1.00;;;;;;10427112;28;20222;-80
2023/09/21 21:50:58;;;;;;;4.40;2.55;;;20.10;1.00;;;;;;10454198;28;20224;-78
2023/09/21 21:56:20;;;;;;;7.03;2.72;;;20.00;1.00;;;;;;10436762;28;20304;-80
2023/09/21 22:01:42;;;;;;;7.10;2.33;;;20.00;1.00;;;;;;10422193;28;20196;-81
2023/09/21 22:07:03;;;;;;;6.57;2.83;;;20.00;1.00;;;;;;10436604;28;20224;-81
2023/09/21 22:12:25;;;;;;;5.60;2.85;;;19.90;1.00;;;;;;10421808;28;20460;-80
2023/09/21 22:17:47;;;;;;;4.40;2.67;;;19.90;1.00;;;;;;10448384;28;20204;-80
2023/09/21 22:23:08;;;;;;;4.13;2.50;;;19.80;1.00;;;;;;10476931;28;20191;-80
2023/09/21 22:28:30;;;;;;;6.07;2.45;;;19.70;1.00;;;;;;10422728;28;20236;-80
2023/09/21 22:33:53;;;;;;;7.63;2.40;;;19.70;1.00;;;;;;10418765;28;20197;-79
2023/09/21 22:39:14;;;;;;;8.80;2.72;;;19.70;1.00;;;;;;10438180;28;20438;-79
2023/09/21 22:44:39;;;;;;;4.20;3.00;;;19.60;1.00;;;;;;10444052;28;20201;-79
2023/09/21 22:50:01;;;;;;;4.63;2.78;;;19.60;1.00;;;;;;10478971;28;20264;-80
2023/09/21 22:55:22;;;;;;;10.25;2.65;;;19.50;1.00;;;;;;10446760;28;20269;-79
2023/09/21 23:01:00;;;;;;;4.30;2.50;;;19.40;1.00;;;;;;10465851;28;20191;-81
2023/09/21 23:06:23;;;;;;;4.70;2.88;;;19.40;31.50;;;;;;10428976;28;20434;-79
2023/09/21 23:11:44;;;;;;;3.92;2.30;;;19.30;63.00;;;;;;10442310;28;20223;-79
2023/09/21 23:17:06;;;;;;;5.90;3.67;;;19.30;49.10;;;;;;10425637;28;20216;-80
2023/09/21 23:22:28;;;;;;;6.25;2.85;;;19.30;99.90;;;;;;10463463;28;20279;-78
2023/09/21 23:27:51;;;;;;;3.97;2.53;;;19.20;99.90;;;;;;10455775;28;20232;-80
2023/09/21 23:33:12;;;;;;;6.18;2.80;;;19.20;99.90;;;;;;10449580;28;20192;-80
2023/09/21 23:38:34;;;;;;;5.50;2.78;;;19.20;99.90;;;;;;10446253;28;20287;-80
2023/09/21 23:43:55;;;;;;;4.65;2.63;;;19.10;99.90;;;;;;10424731;28;20368;-79
2023/09/21 23:49:17;;;;;;;4.15;2.33;;;19.00;99.90;;;;;;10427599;28;20219;-78
2023/09/21 23:54:38;;;;;;;6.32;3.15;;;19.00;99.90;;;;;;10424238;28;20208;-79
